createdAt,value
2023-02-12T00:00:04.042Z,0.00
2023-02-12T00:01:03.388Z,0.00
2023-02-12T00:02:03.481Z,0.00
2023-02-12T00:03:03.409Z,0.00
2023-02-12T00:04:03.430Z,0.00
2023-02-12T00:05:03.430Z,0.00
2023-02-12T00:06:03.465Z,0.00
2023-02-12T00:07:03.457Z,0.00
2023-02-12T00:08:03.467Z,0.00
2023-02-12T00:09:03.489Z,0.00
2023-02-12T00:10:03.490Z,0.00
2023-02-12T00:11:03.504Z,0.00
2023-02-12T00:12:03.517Z,0.00
2023-02-12T00:13:03.526Z,0.00
2023-02-12T00:14:03.547Z,0.00
2023-02-12T00:15:03.550Z,0.00
2023-02-12T00:16:03.737Z,0.00
2023-02-12T00:17:03.570Z,0.00
2023-02-12T00:18:03.587Z,0.00
2023-02-12T00:19:03.601Z,0.00
2023-02-12T00:20:03.605Z,0.00
2023-02-12T00:21:03.622Z,0.00
2023-02-12T00:22:03.627Z,0.00
2023-02-12T00:23:03.645Z,0.00
2023-02-12T00:24:03.652Z,0.00
2023-02-12T00:25:03.665Z,0.00
2023-02-12T00:26:03.676Z,0.00
2023-02-12T00:27:03.693Z,0.00
2023-02-12T00:28:03.790Z,0.00
2023-02-12T00:29:03.712Z,0.00
2023-02-12T00:30:03.723Z,0.00
2023-02-12T00:31:03.831Z,0.00
2023-02-12T00:32:03.746Z,0.00
2023-02-12T00:33:03.755Z,0.00
2023-02-12T00:34:03.777Z,0.00
2023-02-12T00:35:03.782Z,0.00
2023-02-12T00:36:03.798Z,0.00
2023-02-12T00:37:03.805Z,0.00
2023-02-12T00:38:03.815Z,0.00
2023-02-12T00:39:03.826Z,0.00
2023-02-12T00:40:03.836Z,0.00
2023-02-12T00:41:03.851Z,0.00
2023-02-12T00:42:03.865Z,0.00
2023-02-12T00:43:03.873Z,0.00
2023-02-12T00:44:03.886Z,0.00
2023-02-12T00:45:03.896Z,0.00
2023-02-12T00:46:03.962Z,0.00
2023-02-12T00:47:03.920Z,0.00
2023-02-12T00:48:03.932Z,0.00
2023-02-12T00:49:03.943Z,0.00
2023-02-12T00:50:03.957Z,0.00
2023-02-12T00:51:03.965Z,0.00
2023-02-12T00:52:03.974Z,0.00
2023-02-12T00:53:03.998Z,0.00
2023-02-12T00:54:04.008Z,0.00
2023-02-12T00:55:04.018Z,0.00
2023-02-12T00:56:04.035Z,0.00
2023-02-12T00:57:04.040Z,0.00
2023-02-12T00:58:04.049Z,0.00
2023-02-12T00:59:04.059Z,0.00
2023-02-12T01:00:04.069Z,0.00
2023-02-12T01:01:04.102Z,0.00
2023-02-12T01:02:04.093Z,0.00
2023-02-12T01:03:04.122Z,0.00
2023-02-12T01:04:04.116Z,0.00
2023-02-12T01:05:04.253Z,0.00
2023-02-12T01:06:04.150Z,0.00
2023-02-12T01:07:04.151Z,0.00
2023-02-12T01:08:04.161Z,0.00
2023-02-12T01:09:04.178Z,0.00
2023-02-12T01:10:04.188Z,0.00
2023-02-12T01:11:04.199Z,0.00
2023-02-12T01:12:04.210Z,0.00
2023-02-12T01:13:04.224Z,0.00
2023-02-12T01:14:04.239Z,0.00
2023-02-12T01:15:04.250Z,0.00
2023-02-12T01:16:04.418Z,0.00
2023-02-12T01:17:04.268Z,0.00
2023-02-12T01:18:04.283Z,0.00
2023-02-12T01:19:04.304Z,0.00
2023-02-12T01:20:04.303Z,0.00
2023-02-12T01:21:04.315Z,0.00
2023-02-12T01:22:04.331Z,0.00
2023-02-12T01:23:04.343Z,0.00
2023-02-12T01:24:04.358Z,0.00
2023-02-12T01:25:04.367Z,0.00
2023-02-12T01:26:04.378Z,0.00
2023-02-12T01:27:04.387Z,0.00
2023-02-12T01:28:04.417Z,0.00
2023-02-12T01:29:04.421Z,0.00
2023-02-12T01:30:04.422Z,0.00
2023-02-12T01:31:04.528Z,0.00
2023-02-12T01:32:04.557Z,0.00
2023-02-12T01:33:04.458Z,0.00
2023-02-12T01:34:04.468Z,0.00
2023-02-12T01:35:04.479Z,0.00
2023-02-12T01:36:04.491Z,0.00
2023-02-12T01:37:04.500Z,0.00
2023-02-12T01:38:04.521Z,0.00
2023-02-12T01:39:04.524Z,0.00
2023-02-12T01:40:04.544Z,0.00
2023-02-12T01:41:04.549Z,0.00
2023-02-12T01:42:04.562Z,0.00
2023-02-12T01:43:04.572Z,0.00
2023-02-12T01:44:04.581Z,0.00
2023-02-12T01:45:04.594Z,0.00
2023-02-12T01:46:04.674Z,0.00
2023-02-12T01:47:04.624Z,0.00
2023-02-12T01:48:04.629Z,0.00
2023-02-12T01:49:04.644Z,0.00
2023-02-12T01:50:04.652Z,0.00
2023-02-12T01:51:04.665Z,0.00
2023-02-12T01:52:04.681Z,0.00
2023-02-12T01:53:04.696Z,0.00
2023-02-12T01:54:04.701Z,0.00
2023-02-12T01:55:04.726Z,0.00
2023-02-12T01:56:04.721Z,0.00
2023-02-12T01:57:04.746Z,0.00
2023-02-12T01:58:04.752Z,0.00
2023-02-12T01:59:04.761Z,0.00
2023-02-12T02:00:04.768Z,0.00
2023-02-12T02:01:04.786Z,0.00
2023-02-12T02:02:04.877Z,0.00
2023-02-12T02:03:04.826Z,0.00
2023-02-12T02:04:04.815Z,0.00
2023-02-12T02:05:04.828Z,0.00
2023-02-12T02:06:04.841Z,0.00
2023-02-12T02:07:04.863Z,0.00
2023-02-12T02:08:04.877Z,0.00
2023-02-12T02:09:04.909Z,0.00
2023-02-12T02:10:04.888Z,0.00
2023-02-12T02:11:04.897Z,0.00
2023-02-12T02:12:04.930Z,0.00
2023-02-12T02:13:04.923Z,0.00
2023-02-12T02:14:04.929Z,0.00
2023-02-12T02:15:04.957Z,0.00
2023-02-12T02:16:04.961Z,0.00
2023-02-12T02:17:04.971Z,0.00
2023-02-12T02:18:04.988Z,0.00
2023-02-12T02:19:04.989Z,0.00
2023-02-12T02:20:05.015Z,0.00
2023-02-12T02:21:05.008Z,0.00
2023-02-12T02:22:05.021Z,0.00
2023-02-12T02:23:05.030Z,0.00
2023-02-12T02:24:05.045Z,0.00
2023-02-12T02:25:05.065Z,0.00
2023-02-12T02:26:05.068Z,0.00
2023-02-12T02:27:10.823Z,0.00
2023-02-12T02:28:05.116Z,0.00
2023-02-12T02:29:05.103Z,0.00
2023-02-12T02:30:05.110Z,0.00
2023-02-12T02:31:05.210Z,0.00
2023-02-12T02:32:05.171Z,0.00
2023-02-12T02:33:05.145Z,0.00
2023-02-12T02:34:05.155Z,0.00
2023-02-12T02:35:05.169Z,0.00
2023-02-12T02:36:05.182Z,0.00
2023-02-12T02:37:05.224Z,0.00
2023-02-12T02:38:05.203Z,0.00
2023-02-12T02:39:05.215Z,0.00
2023-02-12T02:40:05.232Z,0.00
2023-02-12T02:41:05.241Z,0.00
2023-02-12T02:42:05.249Z,0.00
2023-02-12T02:43:05.264Z,0.00
2023-02-12T02:44:05.270Z,0.00
2023-02-12T02:45:05.284Z,0.00
2023-02-12T02:46:05.295Z,0.00
2023-02-12T02:47:05.310Z,0.00
2023-02-12T02:48:05.322Z,0.00
2023-02-12T02:49:05.329Z,0.00
2023-02-12T02:50:05.341Z,0.00
2023-02-12T02:51:05.367Z,0.00
2023-02-12T02:52:05.367Z,0.00
2023-02-12T02:53:05.391Z,0.00
2023-02-12T02:54:05.388Z,0.00
2023-02-12T02:55:05.400Z,0.00
2023-02-12T02:56:05.416Z,0.00
2023-02-12T02:57:05.422Z,0.00
2023-02-12T02:58:05.452Z,0.00
2023-02-12T02:59:05.448Z,0.00
2023-02-12T03:00:05.458Z,0.00
2023-02-12T03:01:05.558Z,0.00
2023-02-12T03:02:05.479Z,0.00
2023-02-12T03:03:05.596Z,0.00
2023-02-12T03:04:05.512Z,0.00
2023-02-12T03:05:05.531Z,0.00
2023-02-12T03:06:05.570Z,0.00
2023-02-12T03:07:05.539Z,0.00
2023-02-12T03:08:05.575Z,0.00
2023-02-12T03:09:05.556Z,0.00
2023-02-12T03:10:05.583Z,0.00
2023-02-12T03:11:05.583Z,0.00
2023-02-12T03:12:05.597Z,0.00
2023-02-12T03:13:05.620Z,0.00
2023-02-12T03:14:05.616Z,0.00
2023-02-12T03:15:05.636Z,0.00
2023-02-12T03:16:05.708Z,0.00
2023-02-12T03:17:05.649Z,0.00
2023-02-12T03:18:05.662Z,0.00
2023-02-12T03:19:05.673Z,0.00
2023-02-12T03:20:05.691Z,0.00
2023-02-12T03:21:05.725Z,0.00
2023-02-12T03:22:05.726Z,0.00
2023-02-12T03:23:05.723Z,0.00
2023-02-12T03:24:05.736Z,0.00
2023-02-12T03:25:05.747Z,0.00
2023-02-12T03:26:05.759Z,0.00
2023-02-12T03:27:05.769Z,0.00
2023-02-12T03:28:05.811Z,0.00
2023-02-12T03:29:05.790Z,0.00
2023-02-12T03:30:05.801Z,0.00
2023-02-12T03:31:05.858Z,0.00
2023-02-12T03:32:05.828Z,0.00
2023-02-12T03:33:05.838Z,0.00
2023-02-12T03:34:05.852Z,0.00
2023-02-12T03:35:05.862Z,0.00
2023-02-12T03:36:05.880Z,0.00
2023-02-12T03:37:05.902Z,0.00
2023-02-12T03:38:05.898Z,0.00
2023-02-12T03:39:05.910Z,0.00
2023-02-12T03:40:05.919Z,0.00
2023-02-12T03:41:05.930Z,0.00
2023-02-12T03:42:05.940Z,0.00
2023-02-12T03:43:05.953Z,0.00
2023-02-12T03:44:05.966Z,0.00
2023-02-12T03:45:05.977Z,0.00
2023-02-12T03:46:06.054Z,0.00
2023-02-12T03:47:06.008Z,0.00
2023-02-12T03:48:06.009Z,0.00
2023-02-12T03:49:06.030Z,0.00
2023-02-12T03:50:06.037Z,0.00
2023-02-12T03:51:06.056Z,0.00
2023-02-12T03:52:06.061Z,0.00
2023-02-12T03:53:06.075Z,0.00
2023-02-12T03:54:06.080Z,0.00
2023-02-12T03:55:06.092Z,0.00
2023-02-12T03:56:06.110Z,0.00
2023-02-12T03:57:06.111Z,0.00
2023-02-12T03:58:06.125Z,0.00
2023-02-12T03:59:06.134Z,0.00
2023-02-12T04:00:06.143Z,0.00
2023-02-12T04:01:06.250Z,0.00
2023-02-12T04:02:06.287Z,0.00
2023-02-12T04:03:06.194Z,0.00
2023-02-12T04:04:06.237Z,0.00
2023-02-12T04:05:06.204Z,0.00
2023-02-12T04:06:06.214Z,0.00
2023-02-12T04:07:06.226Z,0.00
2023-02-12T04:08:06.240Z,0.00
2023-02-12T04:09:06.248Z,0.00
2023-02-12T04:10:06.257Z,0.00
2023-02-12T04:11:06.276Z,0.00
2023-02-12T04:12:06.281Z,0.00
2023-02-12T04:13:06.299Z,0.00
2023-02-12T04:14:06.315Z,0.00
2023-02-12T04:15:06.336Z,0.00
2023-02-12T04:16:06.326Z,0.00
2023-02-12T04:17:06.339Z,0.00
2023-02-12T04:18:06.351Z,0.00
2023-02-12T04:19:06.362Z,0.00
2023-02-12T04:20:06.371Z,0.00
2023-02-12T04:21:06.382Z,0.00
2023-02-12T04:22:06.405Z,0.00
2023-02-12T04:23:06.412Z,0.00
2023-02-12T04:24:06.425Z,0.00
2023-02-12T04:25:06.437Z,0.00
2023-02-12T04:26:06.451Z,0.00
2023-02-12T04:27:06.469Z,0.00
2023-02-12T04:28:06.512Z,0.00
2023-02-12T04:29:06.494Z,0.00
2023-02-12T04:30:06.503Z,0.00
2023-02-12T04:31:06.581Z,0.00
2023-02-12T04:32:06.518Z,0.00
2023-02-12T04:33:06.527Z,0.00
2023-02-12T04:34:06.539Z,0.00
2023-02-12T04:35:06.556Z,0.00
2023-02-12T04:36:06.561Z,0.00
2023-02-12T04:37:06.585Z,0.00
2023-02-12T04:38:06.602Z,0.00
2023-02-12T04:39:06.597Z,0.00
2023-02-12T04:40:06.609Z,0.00
2023-02-12T04:41:06.621Z,0.00
2023-02-12T04:42:06.634Z,0.00
2023-02-12T04:43:06.648Z,0.00
2023-02-12T04:44:06.673Z,0.00
2023-02-12T04:45:06.680Z,0.00
2023-02-12T04:46:06.791Z,0.00
2023-02-12T04:47:06.701Z,0.00
2023-02-12T04:48:06.704Z,0.00
2023-02-12T04:49:06.716Z,0.00
2023-02-12T04:50:06.732Z,0.00
2023-02-12T04:51:06.752Z,0.00
2023-02-12T04:52:06.759Z,0.00
2023-02-12T04:53:06.762Z,0.00
2023-02-12T04:54:06.776Z,0.00
2023-02-12T04:55:06.794Z,0.00
2023-02-12T04:56:06.796Z,0.00
2023-02-12T04:57:06.807Z,0.00
2023-02-12T04:58:06.823Z,0.00
2023-02-12T04:59:06.832Z,0.00
2023-02-12T05:00:06.848Z,0.00
2023-02-12T05:01:06.914Z,0.00
2023-02-12T05:02:06.870Z,0.00
2023-02-12T05:03:06.879Z,0.00
2023-02-12T05:04:06.889Z,0.00
2023-02-12T05:05:06.944Z,0.00
2023-02-12T05:06:06.913Z,0.00
2023-02-12T05:07:06.930Z,0.00
2023-02-12T05:08:06.949Z,0.00
2023-02-12T05:09:06.947Z,0.00
2023-02-12T05:10:06.960Z,0.00
2023-02-12T05:11:06.976Z,0.00
2023-02-12T05:12:06.989Z,0.00
2023-02-12T05:13:06.994Z,0.00
2023-02-12T05:14:07.005Z,0.00
2023-02-12T05:15:07.020Z,0.00
2023-02-12T05:16:07.232Z,0.00
2023-02-12T05:17:07.042Z,0.00
2023-02-12T05:18:07.063Z,0.00
2023-02-12T05:19:07.065Z,0.00
2023-02-12T05:20:07.076Z,0.00
2023-02-12T05:21:07.116Z,0.00
2023-02-12T05:22:07.099Z,0.00
2023-02-12T05:23:07.113Z,0.00
2023-02-12T05:24:07.122Z,0.00
2023-02-12T05:25:07.135Z,0.00
2023-02-12T05:26:07.152Z,0.00
2023-02-12T05:27:07.156Z,0.00
2023-02-12T05:28:07.249Z,0.00
2023-02-12T05:29:07.186Z,0.00
2023-02-12T05:30:07.193Z,0.00
2023-02-12T05:31:07.400Z,0.00
2023-02-12T05:32:07.312Z,0.00
2023-02-12T05:33:07.228Z,0.00
2023-02-12T05:34:07.240Z,0.00
2023-02-12T05:35:07.274Z,0.00
2023-02-12T05:36:07.289Z,0.00
2023-02-12T05:37:07.274Z,0.00
2023-02-12T05:38:07.288Z,0.00
2023-02-12T05:39:07.305Z,0.00
2023-02-12T05:40:07.313Z,0.00
2023-02-12T05:41:07.325Z,0.00
2023-02-12T05:42:07.335Z,0.00
2023-02-12T05:43:07.346Z,0.00
2023-02-12T05:44:07.354Z,0.00
2023-02-12T05:45:07.366Z,0.00
2023-02-12T05:46:07.434Z,0.00
2023-02-12T05:47:07.392Z,0.00
2023-02-12T05:48:07.401Z,0.00
2023-02-12T05:49:07.412Z,0.00
2023-02-12T05:50:07.426Z,0.00
2023-02-12T05:51:07.441Z,0.00
2023-02-12T05:52:07.449Z,0.00
2023-02-12T05:53:07.458Z,0.00
2023-02-12T05:54:07.489Z,4.00
2023-02-12T05:55:07.481Z,0.00
2023-02-12T05:56:07.495Z,4.00
2023-02-12T05:57:07.504Z,0.00
2023-02-12T05:58:07.517Z,0.00
2023-02-12T05:59:07.533Z,4.00
2023-02-12T06:00:07.539Z,4.00
2023-02-12T06:01:07.554Z,4.00
2023-02-12T06:02:07.567Z,4.00
2023-02-12T06:03:07.576Z,8.00
2023-02-12T06:04:07.674Z,4.00
2023-02-12T06:05:07.608Z,8.00
2023-02-12T06:06:07.610Z,8.00
2023-02-12T06:07:07.626Z,12.00
2023-02-12T06:08:07.632Z,16.00
2023-02-12T06:09:07.651Z,20.00
2023-02-12T06:10:07.658Z,20.00
2023-02-12T06:11:07.670Z,24.00
2023-02-12T06:12:07.681Z,32.00
2023-02-12T06:13:07.688Z,36.00
2023-02-12T06:14:07.701Z,40.00
2023-02-12T06:15:07.714Z,48.00
2023-02-12T06:16:07.748Z,52.00
2023-02-12T06:17:07.744Z,56.00
2023-02-12T06:18:07.749Z,64.00
2023-02-12T06:19:07.760Z,68.00
2023-02-12T06:20:07.772Z,76.00
2023-02-12T06:21:07.786Z,88.00
2023-02-12T06:22:07.795Z,104.00
2023-02-12T06:23:07.815Z,120.00
2023-02-12T06:24:07.820Z,136.00
2023-02-12T06:25:07.845Z,156.00
2023-02-12T06:26:07.843Z,168.00
2023-02-12T06:27:07.868Z,176.00
2023-02-12T06:28:07.878Z,172.00
2023-02-12T06:29:07.884Z,176.00
2023-02-12T06:30:07.892Z,184.00
2023-02-12T06:31:07.967Z,204.00
2023-02-12T06:32:07.983Z,220.00
2023-02-12T06:33:07.928Z,232.00
2023-02-12T06:34:07.941Z,248.00
2023-02-12T06:35:07.955Z,248.00
2023-02-12T06:36:07.960Z,248.00
2023-02-12T06:37:07.974Z,248.00
2023-02-12T06:38:07.986Z,256.00
2023-02-12T06:39:08.000Z,272.00
2023-02-12T06:40:08.017Z,284.00
2023-02-12T06:41:08.023Z,308.00
2023-02-12T06:42:08.040Z,340.00
2023-02-12T06:43:08.047Z,364.00
2023-02-12T06:44:08.057Z,360.00
2023-02-12T06:45:08.079Z,356.00
2023-02-12T06:46:08.156Z,364.00
2023-02-12T06:47:08.093Z,388.00
2023-02-12T06:48:08.104Z,416.00
2023-02-12T06:49:08.115Z,440.00
2023-02-12T06:50:08.127Z,460.00
2023-02-12T06:51:08.145Z,472.00
2023-02-12T06:52:08.152Z,484.00
2023-02-12T06:53:08.164Z,524.00
2023-02-12T06:54:08.175Z,576.00
2023-02-12T06:55:08.187Z,608.00
2023-02-12T06:56:08.197Z,612.00
2023-02-12T06:57:08.208Z,624.00
2023-02-12T06:58:08.221Z,620.00
2023-02-12T06:59:08.235Z,596.00
2023-02-12T07:00:08.245Z,596.00
2023-02-12T07:01:08.300Z,584.00
2023-02-12T07:02:08.275Z,568.00
2023-02-12T07:03:08.282Z,552.00
2023-02-12T07:04:08.359Z,524.00
2023-02-12T07:05:08.304Z,472.00
2023-02-12T07:06:08.314Z,488.00
2023-02-12T07:07:08.326Z,504.00
2023-02-12T07:08:08.340Z,520.00
2023-02-12T07:09:08.349Z,568.00
2023-02-12T07:10:08.360Z,640.00
2023-02-12T07:11:08.377Z,688.00
2023-02-12T07:12:08.380Z,724.00
2023-02-12T07:13:08.393Z,776.00
2023-02-12T07:14:08.406Z,812.00
2023-02-12T07:15:08.419Z,852.00
2023-02-12T07:16:08.448Z,924.00
2023-02-12T07:17:08.443Z,992.00
2023-02-12T07:18:08.457Z,1020.00
2023-02-12T07:19:08.468Z,1016.00
2023-02-12T07:20:08.475Z,1068.00
2023-02-12T07:21:08.488Z,1208.00
2023-02-12T07:22:08.509Z,1276.00
2023-02-12T07:23:08.513Z,1288.00
2023-02-12T07:24:08.526Z,1336.00
2023-02-12T07:25:08.536Z,1364.00
2023-02-12T07:26:08.548Z,1372.00
2023-02-12T07:27:08.571Z,1436.00
2023-02-12T07:28:08.600Z,1448.00
2023-02-12T07:29:08.586Z,1460.00
2023-02-12T07:30:08.605Z,1300.00
2023-02-12T07:31:08.704Z,1232.00
2023-02-12T07:32:08.676Z,1340.00
2023-02-12T07:33:08.644Z,1400.00
2023-02-12T07:34:08.654Z,1524.00
2023-02-12T07:35:08.662Z,1688.00
2023-02-12T07:36:08.676Z,1956.00
2023-02-12T07:37:08.679Z,2176.00
2023-02-12T07:38:08.695Z,2232.00
2023-02-12T07:39:08.730Z,2360.00
2023-02-12T07:40:08.712Z,2312.00
2023-02-12T07:41:10.598Z,2384.00
2023-02-12T07:42:08.740Z,2440.00
2023-02-12T07:43:08.755Z,2416.00
2023-02-12T07:44:08.765Z,2408.00
2023-02-12T07:45:08.775Z,2512.00
2023-02-12T07:46:08.852Z,2860.00
2023-02-12T07:47:08.808Z,3016.00
2023-02-12T07:48:08.809Z,3084.00
2023-02-12T07:49:08.826Z,3204.00
2023-02-12T07:50:08.836Z,3188.00
2023-02-12T07:51:08.860Z,3112.00
2023-02-12T07:52:09.347Z,3292.00
2023-02-12T07:53:08.874Z,3348.00
2023-02-12T07:54:08.888Z,3408.00
2023-02-12T07:55:08.898Z,3468.00
2023-02-12T07:56:08.908Z,3620.00
2023-02-12T07:57:08.922Z,3704.00
2023-02-12T07:58:08.933Z,3648.00
2023-02-12T07:59:08.950Z,3516.00
2023-02-12T08:00:08.958Z,3572.00
2023-02-12T08:01:08.971Z,3812.00
2023-02-12T08:02:09.011Z,4096.00
2023-02-12T08:03:08.995Z,4216.00
2023-02-12T08:04:09.050Z,4028.00
2023-02-12T08:05:09.019Z,3756.00
2023-02-12T08:06:09.031Z,3732.00
2023-02-12T08:07:09.049Z,3816.00
2023-02-12T08:08:09.057Z,3932.00
2023-02-12T08:09:09.071Z,3952.00
2023-02-12T08:10:09.095Z,3616.00
2023-02-12T08:11:09.096Z,3208.00
2023-02-12T08:12:09.108Z,3240.00
2023-02-12T08:13:09.122Z,3428.00
2023-02-12T08:14:09.134Z,3388.00
2023-02-12T08:15:09.144Z,3268.00
2023-02-12T08:16:09.182Z,3352.00
2023-02-12T08:17:09.172Z,3212.00
2023-02-12T08:18:09.185Z,3160.00
2023-02-12T08:19:17.891Z,3260.00
2023-02-12T08:20:09.219Z,3380.00
2023-02-12T08:21:09.226Z,3648.00
2023-02-12T08:22:09.254Z,3856.00
2023-02-12T08:23:09.258Z,3852.00
2023-02-12T08:24:09.264Z,3748.00
2023-02-12T08:25:09.282Z,3644.00
2023-02-12T08:26:09.298Z,3676.00
2023-02-12T08:27:09.303Z,3844.00
2023-02-12T08:28:09.393Z,4040.00
2023-02-12T08:29:09.334Z,3912.00
2023-02-12T08:30:09.337Z,3620.00
2023-02-12T08:31:09.458Z,3524.00
2023-02-12T08:32:09.382Z,3444.00
2023-02-12T08:33:09.376Z,3324.00
2023-02-12T08:34:09.392Z,3672.00
2023-02-12T08:35:09.404Z,3684.00
2023-02-12T08:36:09.435Z,3820.00
2023-02-12T08:37:09.430Z,3912.00
2023-02-12T08:38:09.442Z,3864.00
2023-02-12T08:39:09.456Z,3772.00
2023-02-12T08:40:09.467Z,3696.00
2023-02-12T08:41:09.587Z,3656.00
2023-02-12T08:42:09.511Z,3724.00
2023-02-12T08:43:09.508Z,3960.00
2023-02-12T08:44:09.525Z,4028.00
2023-02-12T08:45:09.545Z,4116.00
2023-02-12T08:46:09.645Z,4448.00
2023-02-12T08:47:09.557Z,4804.00
2023-02-12T08:48:09.581Z,4864.00
2023-02-12T08:49:09.587Z,4668.00
2023-02-12T08:50:09.597Z,4828.00
2023-02-12T08:51:09.620Z,4920.00
2023-02-12T08:52:09.636Z,5240.00
2023-02-12T08:53:09.635Z,5380.00
2023-02-12T08:54:09.646Z,5176.00
2023-02-12T08:55:09.661Z,4888.00
2023-02-12T08:56:09.676Z,4996.00
2023-02-12T08:57:09.686Z,5200.00
2023-02-12T08:58:09.701Z,5268.00
2023-02-12T08:59:09.712Z,5120.00
2023-02-12T09:00:09.726Z,5080.00
2023-02-12T09:01:09.770Z,4764.00
2023-02-12T09:02:09.802Z,4824.00
2023-02-12T09:03:09.765Z,5248.00
2023-02-12T09:04:09.777Z,5652.00
2023-02-12T09:05:09.793Z,5900.00
2023-02-12T09:06:09.804Z,6064.00
2023-02-12T09:07:10.933Z,6124.00
2023-02-12T09:08:09.833Z,6120.00
2023-02-12T09:09:09.843Z,5956.00
2023-02-12T09:10:09.857Z,6068.00
2023-02-12T09:11:09.871Z,6016.00
2023-02-12T09:12:09.884Z,6080.00
2023-02-12T09:13:09.898Z,6144.00
2023-02-12T09:14:09.914Z,6188.00
2023-02-12T09:15:09.925Z,7148.00
2023-02-12T09:16:09.939Z,8780.00
2023-02-12T09:17:09.952Z,8920.00
2023-02-12T09:18:09.967Z,9164.00
2023-02-12T09:19:09.980Z,8732.00
2023-02-12T09:20:09.990Z,8540.00
2023-02-12T09:21:10.007Z,8108.00
2023-02-12T09:22:10.021Z,7792.00
2023-02-12T09:23:10.039Z,7148.00
2023-02-12T09:24:10.064Z,7388.00
2023-02-12T09:25:10.073Z,7552.00
2023-02-12T09:26:10.123Z,7504.00
2023-02-12T09:27:10.091Z,7052.00
2023-02-12T09:28:10.157Z,6908.00
2023-02-12T09:29:10.121Z,7008.00
2023-02-12T09:30:10.137Z,7124.00
2023-02-12T09:31:10.264Z,7160.00
2023-02-12T09:32:10.211Z,7308.00
2023-02-12T09:33:10.175Z,7460.00
2023-02-12T09:34:10.192Z,7076.00
2023-02-12T09:35:10.205Z,6708.00
2023-02-12T09:36:10.220Z,7192.00
2023-02-12T09:37:10.233Z,7064.00
2023-02-12T09:38:10.245Z,6748.00
2023-02-12T09:39:10.264Z,6748.00
2023-02-12T09:40:10.273Z,6804.00
2023-02-12T09:41:10.285Z,7252.00
2023-02-12T09:42:10.303Z,8124.00
2023-02-12T09:43:10.323Z,8396.00
2023-02-12T09:44:10.331Z,7976.00
2023-02-12T09:45:10.351Z,8764.00
2023-02-12T09:46:10.403Z,9860.00
2023-02-12T09:47:10.372Z,10352.00
2023-02-12T09:48:10.388Z,10200.00
2023-02-12T09:49:10.406Z,9616.00
2023-02-12T09:50:10.415Z,9176.00
2023-02-12T09:51:10.426Z,8548.00
2023-02-12T09:52:10.448Z,7884.00
2023-02-12T09:53:10.459Z,6720.00
2023-02-12T09:54:10.494Z,6256.00
2023-02-12T09:55:10.492Z,5964.00
2023-02-12T09:56:10.534Z,5828.00
2023-02-12T09:57:10.518Z,5908.00
2023-02-12T09:58:10.541Z,6392.00
2023-02-12T09:59:10.551Z,6564.00
2023-02-12T10:00:10.564Z,5816.00
2023-02-12T10:01:10.601Z,5504.00
2023-02-12T10:02:10.593Z,5904.00
2023-02-12T10:03:10.609Z,6864.00
2023-02-12T10:04:10.667Z,9012.00
2023-02-12T10:05:10.677Z,11108.00
2023-02-12T10:06:10.653Z,11168.00
2023-02-12T10:07:10.671Z,10688.00
2023-02-12T10:08:10.683Z,9512.00
2023-02-12T10:09:10.697Z,8300.00
2023-02-12T10:10:10.718Z,7428.00
2023-02-12T10:11:10.728Z,7860.00
2023-02-12T10:12:10.741Z,8864.00
2023-02-12T10:13:10.773Z,9728.00
2023-02-12T10:14:10.775Z,10532.00
2023-02-12T10:15:10.786Z,11300.00
2023-02-12T10:16:10.823Z,9996.00
2023-02-12T10:17:10.821Z,8208.00
2023-02-12T10:18:10.833Z,7076.00
2023-02-12T10:19:10.846Z,6264.00
2023-02-12T10:20:10.859Z,6008.00
2023-02-12T10:21:10.887Z,6784.00
2023-02-12T10:22:10.890Z,6616.00
2023-02-12T10:23:10.910Z,5748.00
2023-02-12T10:24:10.918Z,5724.00
2023-02-12T10:25:10.949Z,6432.00
2023-02-12T10:26:10.952Z,6908.00
2023-02-12T10:27:10.973Z,6340.00
2023-02-12T10:28:11.023Z,6252.00
2023-02-12T10:29:10.992Z,5780.00
2023-02-12T10:30:11.009Z,6116.00
2023-02-12T10:31:11.135Z,6480.00
2023-02-12T10:32:11.048Z,6376.00
2023-02-12T10:33:11.050Z,6256.00
2023-02-12T10:34:11.064Z,5992.00
2023-02-12T10:35:11.078Z,5280.00
2023-02-12T10:36:11.091Z,4508.00
2023-02-12T10:37:11.108Z,4532.00
2023-02-12T10:38:11.120Z,4940.00
2023-02-12T10:39:11.135Z,5396.00
2023-02-12T10:40:11.148Z,5076.00
2023-02-12T10:41:11.177Z,4836.00
2023-02-12T10:42:11.183Z,4956.00
2023-02-12T10:43:11.191Z,5620.00
2023-02-12T10:44:11.207Z,5448.00
2023-02-12T10:45:11.223Z,5200.00
2023-02-12T10:46:11.263Z,5000.00
2023-02-12T10:47:11.256Z,4952.00
2023-02-12T10:48:11.261Z,5608.00
2023-02-12T10:49:11.276Z,6864.00
2023-02-12T10:50:11.292Z,8420.00
2023-02-12T10:51:11.308Z,9104.00
2023-02-12T10:52:11.319Z,10264.00
2023-02-12T10:53:11.333Z,11008.00
2023-02-12T10:54:11.349Z,11668.00
2023-02-12T10:55:11.365Z,12672.00
2023-02-12T10:56:11.378Z,11120.00
2023-02-12T10:57:11.389Z,9820.00
2023-02-12T10:58:11.406Z,9316.00
2023-02-12T10:59:11.418Z,8444.00
2023-02-12T11:00:11.436Z,7928.00
2023-02-12T11:01:11.444Z,7232.00
2023-02-12T11:02:11.461Z,6792.00
2023-02-12T11:03:11.477Z,6536.00
2023-02-12T11:04:11.489Z,5912.00
2023-02-12T11:05:11.530Z,5504.00
2023-02-12T11:06:11.529Z,5168.00
2023-02-12T11:07:11.545Z,4376.00
2023-02-12T11:08:11.548Z,3532.00
2023-02-12T11:09:11.560Z,4032.00
2023-02-12T11:10:11.577Z,5216.00
2023-02-12T11:11:11.590Z,7404.00
2023-02-12T11:12:11.605Z,6972.00
2023-02-12T11:13:11.619Z,7612.00
2023-02-12T11:14:11.636Z,9700.00
2023-02-12T11:15:11.649Z,10180.00
2023-02-12T11:16:11.764Z,10524.00
2023-02-12T11:17:11.678Z,11416.00
2023-02-12T11:18:11.694Z,12008.00
2023-02-12T11:19:11.707Z,11132.00
2023-02-12T11:20:11.721Z,9564.00
2023-02-12T11:21:11.736Z,8912.00
2023-02-12T11:22:11.766Z,8972.00
2023-02-12T11:23:11.760Z,8324.00
2023-02-12T11:24:11.776Z,7792.00
2023-02-12T11:25:11.787Z,7956.00
2023-02-12T11:26:11.804Z,7288.00
2023-02-12T11:27:11.816Z,5904.00
2023-02-12T11:28:11.967Z,4340.00
2023-02-12T11:29:11.952Z,3520.00
2023-02-12T11:30:11.861Z,2976.00
2023-02-12T11:31:11.928Z,3196.00
2023-02-12T11:32:11.892Z,3724.00
2023-02-12T11:33:11.902Z,4172.00
2023-02-12T11:34:11.916Z,4464.00
2023-02-12T11:35:11.933Z,4284.00
2023-02-12T11:36:11.943Z,4600.00
2023-02-12T11:37:11.957Z,6316.00
2023-02-12T11:38:11.977Z,6496.00
2023-02-12T11:39:11.986Z,7156.00
2023-02-12T11:40:12.001Z,9516.00
2023-02-12T11:41:12.016Z,11628.00
2023-02-12T11:42:12.032Z,12344.00
2023-02-12T11:43:12.044Z,15148.00
2023-02-12T11:44:12.062Z,14824.00
2023-02-12T11:45:12.071Z,13096.00
2023-02-12T11:46:12.090Z,13380.00
2023-02-12T11:47:12.123Z,14108.00
2023-02-12T11:48:12.113Z,12936.00
2023-02-12T11:49:12.130Z,12656.00
2023-02-12T11:50:12.143Z,11760.00
2023-02-12T11:51:12.156Z,10048.00
2023-02-12T11:52:12.174Z,8584.00
2023-02-12T11:53:12.185Z,8024.00
2023-02-12T11:54:12.199Z,8044.00
2023-02-12T11:55:12.214Z,8920.00
2023-02-12T11:56:12.227Z,9532.00
2023-02-12T11:57:12.243Z,9748.00
2023-02-12T11:58:12.258Z,9236.00
2023-02-12T11:59:12.273Z,11480.00
2023-02-12T12:00:12.283Z,10468.00
2023-02-12T12:01:12.314Z,10720.00
2023-02-12T12:02:12.395Z,10928.00
2023-02-12T12:03:12.385Z,9856.00
2023-02-12T12:04:12.341Z,9792.00
2023-02-12T12:05:12.355Z,9208.00
2023-02-12T12:06:12.370Z,8064.00
2023-02-12T12:07:12.394Z,8144.00
2023-02-12T12:08:12.404Z,7320.00
2023-02-12T12:09:12.436Z,6712.00
2023-02-12T12:10:12.426Z,7264.00
2023-02-12T12:11:12.449Z,7376.00
2023-02-12T12:12:12.469Z,6200.00
2023-02-12T12:13:12.471Z,6324.00
2023-02-12T12:14:12.482Z,7052.00
2023-02-12T12:15:12.499Z,8464.00
2023-02-12T12:16:12.527Z,8568.00
2023-02-12T12:17:12.535Z,8804.00
2023-02-12T12:18:12.552Z,9360.00
2023-02-12T12:19:12.558Z,8296.00
2023-02-12T12:20:12.569Z,8840.00
2023-02-12T12:21:12.583Z,9000.00
2023-02-12T12:22:12.597Z,6040.00
2023-02-12T12:23:12.614Z,5768.00
2023-02-12T12:24:12.623Z,7228.00
2023-02-12T12:25:12.641Z,8824.00
2023-02-12T12:26:12.659Z,8476.00
2023-02-12T12:27:12.678Z,6900.00
2023-02-12T12:28:12.732Z,6344.00
2023-02-12T12:29:12.699Z,7340.00
2023-02-12T12:30:12.712Z,9292.00
2023-02-12T12:31:12.809Z,10484.00
2023-02-12T12:32:12.745Z,7712.00
2023-02-12T12:33:12.753Z,5716.00
2023-02-12T12:34:12.766Z,5076.00
2023-02-12T12:35:12.784Z,4872.00
2023-02-12T12:36:12.808Z,5288.00
2023-02-12T12:37:12.815Z,6492.00
2023-02-12T12:38:12.826Z,7664.00
2023-02-12T12:39:12.840Z,7964.00
2023-02-12T12:40:12.857Z,9236.00